メインページ
METAR-TAF:

METAR-TAF

空港 :

ペルシア湾空港

Asaluyeh, イラン

緯度: 27-22-46N, 経度: 52-44-15E, 海抜: 8m

現時点の気象観測

当レポートは20分前の18:00(UTC)に作成
西の風 4kt
気温 20°C
湿度 83%
気圧 1017 hPa
視程: 6000m
高度3000ftの雲は散在している, 積乱雲.
高度4000ftの雲は散在している
高度8000ftの曇り
激しい雷雨, 雨

METAR: OIBP 171800Z 28004KT 6000 TS RA SCT030CB SCT040 OVC080 20/17 Q1017 A3004

時間: 21:50 (18:20 UTC)


TAF: 見つかりません

4,000以上の空港の気象観測と天気予報(METAR報とTAF報)

利用可能な観測所は地図上に黄色い丸と赤い丸で示す。

丸の上にカーソルを重ねると観測所名を参照できる。

次にクリックすると気象観測と天気予報を参照できる。

マップの切り替え:黒色「×」印の緑ボタンをクリックして拡大、「-」印の緑ボタンをクリックして縮小、緑色の三角印をクリックして隣りの地図に切り替え


METAR-TAF: